sensor_id;sensor_type;location;lat;lon;timestamp;temperature;humidity
65770;DHT22;52512;47.650;8.578;2022-08-23T00:01:49;19.80;98.60
65770;DHT22;52512;47.650;8.578;2022-08-23T00:04:25;19.70;98.70
65770;DHT22;52512;47.650;8.578;2022-08-23T00:06:53;19.70;99.10
65770;DHT22;52512;47.650;8.578;2022-08-23T00:09:21;19.70;99.20
65770;DHT22;52512;47.650;8.578;2022-08-23T00:11:54;19.60;99.40
65770;DHT22;52512;47.650;8.578;2022-08-23T00:14:29;19.60;99.60
65770;DHT22;52512;47.650;8.578;2022-08-23T00:16:56;19.60;99.60
65770;DHT22;52512;47.650;8.578;2022-08-23T00:19:25;19.60;99.70
65770;DHT22;52512;47.650;8.578;2022-08-23T00:21:52;19.60;99.90
65770;DHT22;52512;47.650;8.578;2022-08-23T00:24:20;19.60;99.90
65770;DHT22;52512;47.650;8.578;2022-08-23T00:29:16;19.50;99.90
65770;DHT22;52512;47.650;8.578;2022-08-23T00:31:43;19.50;99.90
65770;DHT22;52512;47.650;8.578;2022-08-23T00:34:10;19.50;99.90
65770;DHT22;52512;47.650;8.578;2022-08-23T00:36:36;19.50;99.90
65770;DHT22;52512;47.650;8.578;2022-08-23T00:39:02;19.40;99.90
65770;DHT22;52512;47.650;8.578;2022-08-23T00:41:28;19.40;99.90
65770;DHT22;52512;47.650;8.578;2022-08-23T00:43:54;19.40;99.90
65770;DHT22;52512;47.650;8.578;2022-08-23T00:46:57;19.40;99.90
65770;DHT22;52512;47.650;8.578;2022-08-23T00:49:43;19.30;99.90
65770;DHT22;52512;47.650;8.578;2022-08-23T00:52:17;19.30;99.90
65770;DHT22;52512;47.650;8.578;2022-08-23T00:54:44;19.30;99.90
65770;DHT22;52512;47.650;8.578;2022-08-23T00:57:14;19.30;99.90
65770;DHT22;52512;47.650;8.578;2022-08-23T00:59:40;19.30;99.90
65770;DHT22;52512;47.650;8.578;2022-08-23T01:02:08;19.20;99.90
65770;DHT22;52512;47.650;8.578;2022-08-23T01:04:39;19.20;99.90
65770;DHT22;52512;47.650;8.578;2022-08-23T01:07:22;19.20;99.90
65770;DHT22;52512;47.650;8.578;2022-08-23T01:09:51;19.20;99.90
65770;DHT22;52512;47.650;8.578;2022-08-23T01:12:27;19.10;99.90
65770;DHT22;52512;47.650;8.578;2022-08-23T01:15:02;19.10;99.90
65770;DHT22;52512;47.650;8.578;2022-08-23T01:17:34;19.10;99.90
65770;DHT22;52512;47.650;8.578;2022-08-23T01:20:06;19.10;99.90
65770;DHT22;52512;47.650;8.578;2022-08-23T01:23:04;19.00;99.90
65770;DHT22;52512;47.650;8.578;2022-08-23T01:25:32;19.00;99.90
65770;DHT22;52512;47.650;8.578;2022-08-23T01:27:58;19.00;99.90
65770;DHT22;52512;47.650;8.578;2022-08-23T01:30:29;18.90;99.90
65770;DHT22;52512;47.650;8.578;2022-08-23T01:33:00;18.90;99.90
65770;DHT22;52512;47.650;8.578;2022-08-23T01:35:37;18.90;99.90
65770;DHT22;52512;47.650;8.578;2022-08-23T01:38:05;18.90;99.90
65770;DHT22;52512;47.650;8.578;2022-08-23T01:40:31;18.90;99.90
65770;DHT22;52512;47.650;8.578;2022-08-23T01:42:57;18.90;99.90
65770;DHT22;52512;47.650;8.578;2022-08-23T01:45:23;18.80;99.90
65770;DHT22;52512;47.650;8.578;2022-08-23T01:47:49;18.80;99.90
65770;DHT22;52512;47.650;8.578;2022-08-23T01:50:14;18.70;99.90
65770;DHT22;52512;47.650;8.578;2022-08-23T01:52:41;18.70;99.90
65770;DHT22;52512;47.650;8.578;2022-08-23T01:55:07;18.70;99.90
65770;DHT22;52512;47.650;8.578;2022-08-23T01:57:33;18.70;99.90
65770;DHT22;52512;47.650;8.578;2022-08-23T01:59:59;18.70;99.90
65770;DHT22;52512;47.650;8.578;2022-08-23T02:02:26;18.70;99.90
65770;DHT22;52512;47.650;8.578;2022-08-23T02:04:52;18.70;99.90
65770;DHT22;52512;47.650;8.578;2022-08-23T02:07:18;18.60;99.90
65770;DHT22;52512;47.650;8.578;2022-08-23T02:09:45;18.60;99.90
65770;DHT22;52512;47.650;8.578;2022-08-23T02:12:11;18.60;99.90
65770;DHT22;52512;47.650;8.578;2022-08-23T02:14:36;18.60;99.90
65770;DHT22;52512;47.650;8.578;2022-08-23T02:17:06;18.50;99.90
65770;DHT22;52512;47.650;8.578;2022-08-23T02:19:32;18.50;99.90
65770;DHT22;52512;47.650;8.578;2022-08-23T02:21:59;18.50;99.90
65770;DHT22;52512;47.650;8.578;2022-08-23T02:24:25;18.40;99.90
65770;DHT22;52512;47.650;8.578;2022-08-23T02:26:53;18.40;99.90
65770;DHT22;52512;47.650;8.578;2022-08-23T02:29:21;18.40;99.90
65770;DHT22;52512;47.650;8.578;2022-08-23T02:31:47;18.40;99.90
65770;DHT22;52512;47.650;8.578;2022-08-23T02:34:15;18.30;99.90
65770;DHT22;52512;47.650;8.578;2022-08-23T02:36:42;18.30;99.90
65770;DHT22;52512;47.650;8.578;2022-08-23T02:39:08;18.30;99.90
65770;DHT22;52512;47.650;8.578;2022-08-23T02:41:34;18.30;99.90
65770;DHT22;52512;47.650;8.578;2022-08-23T02:44:00;18.30;99.90
65770;DHT22;52512;47.650;8.578;2022-08-23T02:46:26;18.20;99.90
65770;DHT22;52512;47.650;8.578;2022-08-23T02:48:52;18.20;99.90
65770;DHT22;52512;47.650;8.578;2022-08-23T02:51:19;18.20;99.90
65770;DHT22;52512;47.650;8.578;2022-08-23T02:53:45;18.10;99.90
65770;DHT22;52512;47.650;8.578;2022-08-23T02:56:13;18.10;99.90
65770;DHT22;52512;47.650;8.578;2022-08-23T02:58:39;18.10;99.90
65770;DHT22;52512;47.650;8.578;2022-08-23T03:01:14;18.00;99.90
65770;DHT22;52512;47.650;8.578;2022-08-23T03:03:40;18.00;99.90
65770;DHT22;52512;47.650;8.578;2022-08-23T03:06:05;17.90;99.90
65770;DHT22;52512;47.650;8.578;2022-08-23T03:08:31;17.90;99.90
65770;DHT22;52512;47.650;8.578;2022-08-23T03:10:57;17.90;99.90
65770;DHT22;52512;47.650;8.578;2022-08-23T03:13:22;17.80;99.90
65770;DHT22;52512;47.650;8.578;2022-08-23T03:15:48;17.80;99.90
65770;DHT22;52512;47.650;8.578;2022-08-23T03:18:14;17.70;99.90
65770;DHT22;52512;47.650;8.578;2022-08-23T03:20:41;17.70;99.90
65770;DHT22;52512;47.650;8.578;2022-08-23T03:23:10;17.70;99.90
65770;DHT22;52512;47.650;8.578;2022-08-23T03:25:37;17.70;99.90
65770;DHT22;52512;47.650;8.578;2022-08-23T03:28:06;17.60;99.90
65770;DHT22;52512;47.650;8.578;2022-08-23T03:30:32;17.60;99.90
65770;DHT22;52512;47.650;8.578;2022-08-23T03:32:59;17.50;99.90
65770;DHT22;52512;47.650;8.578;2022-08-23T03:35:27;17.50;99.90
65770;DHT22;52512;47.650;8.578;2022-08-23T03:37:53;17.50;99.90
65770;DHT22;52512;47.650;8.578;2022-08-23T03:40:19;17.50;99.90
65770;DHT22;52512;47.650;8.578;2022-08-23T03:42:48;17.50;99.90
65770;DHT22;52512;47.650;8.578;2022-08-23T03:45:14;17.40;99.90
65770;DHT22;52512;47.650;8.578;2022-08-23T03:47:40;17.40;99.90
65770;DHT22;52512;47.650;8.578;2022-08-23T03:50:06;17.40;99.90
65770;DHT22;52512;47.650;8.578;2022-08-23T03:52:32;17.40;99.90
65770;DHT22;52512;47.650;8.578;2022-08-23T03:54:58;17.30;99.90
65770;DHT22;52512;47.650;8.578;2022-08-23T03:57:24;17.30;99.90
65770;DHT22;52512;47.650;8.578;2022-08-23T03:59:50;17.30;99.90
65770;DHT22;52512;47.650;8.578;2022-08-23T04:02:15;17.30;99.90
65770;DHT22;52512;47.650;8.578;2022-08-23T04:04:41;17.30;99.90
65770;DHT22;52512;47.650;8.578;2022-08-23T04:07:07;17.30;99.90
65770;DHT22;52512;47.650;8.578;2022-08-23T04:09:33;17.30;99.90
65770;DHT22;52512;47.650;8.578;2022-08-23T04:12:02;17.30;99.90
65770;DHT22;52512;47.650;8.578;2022-08-23T04:14:30;17.30;99.90
65770;DHT22;52512;47.650;8.578;2022-08-23T04:16:55;17.30;99.90
65770;DHT22;52512;47.650;8.578;2022-08-23T04:19:21;17.20;99.90
65770;DHT22;52512;47.650;8.578;2022-08-23T04:21:49;17.10;99.90
65770;DHT22;52512;47.650;8.578;2022-08-23T04:24:16;17.10;99.90
65770;DHT22;52512;47.650;8.578;2022-08-23T04:26:43;17.10;99.90
65770;DHT22;52512;47.650;8.578;2022-08-23T04:29:09;17.10;99.90
65770;DHT22;52512;47.650;8.578;2022-08-23T04:31:36;17.10;99.90
65770;DHT22;52512;47.650;8.578;2022-08-23T04:34:02;17.00;99.90
65770;DHT22;52512;47.650;8.578;2022-08-23T04:36:31;17.00;99.90
65770;DHT22;52512;47.650;8.578;2022-08-23T04:38:58;16.90;99.90
65770;DHT22;52512;47.650;8.578;2022-08-23T04:41:24;16.90;99.90
65770;DHT22;52512;47.650;8.578;2022-08-23T04:44:08;16.90;99.90
65770;DHT22;52512;47.650;8.578;2022-08-23T04:46:33;16.90;99.90
65770;DHT22;52512;47.650;8.578;2022-08-23T04:49:00;16.90;99.90
65770;DHT22;52512;47.650;8.578;2022-08-23T04:51:25;16.80;99.90
65770;DHT22;52512;47.650;8.578;2022-08-23T04:53:51;16.80;99.90
65770;DHT22;52512;47.650;8.578;2022-08-23T04:56:17;16.60;99.90
65770;DHT22;52512;47.650;8.578;2022-08-23T04:58:43;16.60;99.90
65770;DHT22;52512;47.650;8.578;2022-08-23T05:01:09;16.60;99.90
65770;DHT22;52512;47.650;8.578;2022-08-23T05:03:36;16.60;99.90
65770;DHT22;52512;47.650;8.578;2022-08-23T05:06:02;16.60;99.90
65770;DHT22;52512;47.650;8.578;2022-08-23T05:08:29;16.60;99.90
65770;DHT22;52512;47.650;8.578;2022-08-23T05:10:59;16.60;99.90
65770;DHT22;52512;47.650;8.578;2022-08-23T05:13:25;16.60;99.90
65770;DHT22;52512;47.650;8.578;2022-08-23T05:15:51;16.60;99.90
65770;DHT22;52512;47.650;8.578;2022-08-23T05:18:17;16.60;99.90
65770;DHT22;52512;47.650;8.578;2022-08-23T05:20:43;16.50;99.90
65770;DHT22;52512;47.650;8.578;2022-08-23T05:23:08;16.50;99.90
65770;DHT22;52512;47.650;8.578;2022-08-23T05:25:34;16.50;99.90
65770;DHT22;52512;47.650;8.578;2022-08-23T05:28:24;16.50;99.90
65770;DHT22;52512;47.650;8.578;2022-08-23T05:31:12;16.50;99.90
65770;DHT22;52512;47.650;8.578;2022-08-23T05:33:39;16.50;99.90
65770;DHT22;52512;47.650;8.578;2022-08-23T05:36:05;16.50;99.90
65770;DHT22;52512;47.650;8.578;2022-08-23T05:38:32;16.50;99.90
65770;DHT22;52512;47.650;8.578;2022-08-23T05:40:59;16.50;99.90
65770;DHT22;52512;47.650;8.578;2022-08-23T05:43:27;16.50;99.90
65770;DHT22;52512;47.650;8.578;2022-08-23T05:48:30;16.60;99.90
65770;DHT22;52512;47.650;8.578;2022-08-23T05:50:56;16.60;99.90
65770;DHT22;52512;47.650;8.578;2022-08-23T05:53:22;16.60;99.90
65770;DHT22;52512;47.650;8.578;2022-08-23T05:55:48;16.60;99.90
65770;DHT22;52512;47.650;8.578;2022-08-23T05:58:14;16.60;99.90
65770;DHT22;52512;47.650;8.578;2022-08-23T06:00:39;16.60;99.90
65770;DHT22;52512;47.650;8.578;2022-08-23T06:03:05;16.60;99.90
65770;DHT22;52512;47.650;8.578;2022-08-23T06:05:31;16.60;99.90
65770;DHT22;52512;47.650;8.578;2022-08-23T06:07:58;16.70;99.90
65770;DHT22;52512;47.650;8.578;2022-08-23T06:10:24;16.70;99.90
65770;DHT22;52512;47.650;8.578;2022-08-23T06:12:50;16.70;99.90
65770;DHT22;52512;47.650;8.578;2022-08-23T06:15:16;16.70;99.90
65770;DHT22;52512;47.650;8.578;2022-08-23T06:17:41;16.70;99.90
65770;DHT22;52512;47.650;8.578;2022-08-23T06:20:08;16.70;99.90
65770;DHT22;52512;47.650;8.578;2022-08-23T06:22:34;16.80;99.90
65770;DHT22;52512;47.650;8.578;2022-08-23T06:25:00;16.80;99.90
65770;DHT22;52512;47.650;8.578;2022-08-23T06:27:25;16.80;99.90
65770;DHT22;52512;47.650;8.578;2022-08-23T06:29:51;16.80;99.90
65770;DHT22;52512;47.650;8.578;2022-08-23T06:32:17;16.80;99.90
65770;DHT22;52512;47.650;8.578;2022-08-23T06:34:42;16.90;99.90
65770;DHT22;52512;47.650;8.578;2022-08-23T06:37:12;16.90;99.90
65770;DHT22;52512;47.650;8.578;2022-08-23T06:39:40;17.00;99.90
65770;DHT22;52512;47.650;8.578;2022-08-23T06:42:14;17.00;99.90
65770;DHT22;52512;47.650;8.578;2022-08-23T06:44:40;17.10;99.90
65770;DHT22;52512;47.650;8.578;2022-08-23T06:47:07;17.10;99.90
65770;DHT22;52512;47.650;8.578;2022-08-23T06:49:33;17.20;99.90
65770;DHT22;52512;47.650;8.578;2022-08-23T06:51:59;17.20;99.90
65770;DHT22;52512;47.650;8.578;2022-08-23T06:54:29;17.30;99.90
65770;DHT22;52512;47.650;8.578;2022-08-23T06:56:56;17.40;99.90
65770;DHT22;52512;47.650;8.578;2022-08-23T06:59:22;17.40;99.90
65770;DHT22;52512;47.650;8.578;2022-08-23T07:01:49;17.50;99.90
65770;DHT22;52512;47.650;8.578;2022-08-23T07:04:20;17.60;99.90
65770;DHT22;52512;47.650;8.578;2022-08-23T07:06:46;17.70;99.90
65770;DHT22;52512;47.650;8.578;2022-08-23T07:09:12;17.70;99.90
65770;DHT22;52512;47.650;8.578;2022-08-23T07:11:38;17.80;99.90
65770;DHT22;52512;47.650;8.578;2022-08-23T07:14:07;17.90;99.90
65770;DHT22;52512;47.650;8.578;2022-08-23T07:16:37;18.00;99.90
65770;DHT22;52512;47.650;8.578;2022-08-23T07:19:04;18.10;99.90
65770;DHT22;52512;47.650;8.578;2022-08-23T07:21:30;18.10;99.90
65770;DHT22;52512;47.650;8.578;2022-08-23T07:23:56;18.20;99.90
65770;DHT22;52512;47.650;8.578;2022-08-23T07:26:23;18.30;99.90
65770;DHT22;52512;47.650;8.578;2022-08-23T07:28:49;18.40;99.90
65770;DHT22;52512;47.650;8.578;2022-08-23T07:31:28;18.50;99.90
65770;DHT22;52512;47.650;8.578;2022-08-23T07:33:57;18.60;99.90
65770;DHT22;52512;47.650;8.578;2022-08-23T07:36:24;18.60;99.90
65770;DHT22;52512;47.650;8.578;2022-08-23T07:38:55;18.70;99.90
65770;DHT22;52512;47.650;8.578;2022-08-23T07:41:23;18.80;99.90
65770;DHT22;52512;47.650;8.578;2022-08-23T07:43:49;18.90;99.90
65770;DHT22;52512;47.650;8.578;2022-08-23T07:46:15;19.00;99.90
65770;DHT22;52512;47.650;8.578;2022-08-23T07:48:41;19.10;99.90
65770;DHT22;52512;47.650;8.578;2022-08-23T07:51:10;19.20;99.90
65770;DHT22;52512;47.650;8.578;2022-08-23T07:53:36;19.30;99.90
65770;DHT22;52512;47.650;8.578;2022-08-23T07:56:10;19.40;99.90
65770;DHT22;52512;47.650;8.578;2022-08-23T07:58:36;19.40;99.90
65770;DHT22;52512;47.650;8.578;2022-08-23T08:01:31;19.60;99.90
65770;DHT22;52512;47.650;8.578;2022-08-23T08:03:58;19.70;99.90
65770;DHT22;52512;47.650;8.578;2022-08-23T08:06:28;19.80;99.90
65770;DHT22;52512;47.650;8.578;2022-08-23T08:08:55;19.80;99.90
65770;DHT22;52512;47.650;8.578;2022-08-23T08:11:23;20.00;99.90
65770;DHT22;52512;47.650;8.578;2022-08-23T08:13:50;20.00;99.90
65770;DHT22;52512;47.650;8.578;2022-08-23T08:16:26;20.10;99.90
65770;DHT22;52512;47.650;8.578;2022-08-23T08:18:54;20.20;99.90
65770;DHT22;52512;47.650;8.578;2022-08-23T08:21:20;20.30;99.90
65770;DHT22;52512;47.650;8.578;2022-08-23T08:23:46;20.30;99.90
65770;DHT22;52512;47.650;8.578;2022-08-23T08:26:12;20.40;99.90
65770;DHT22;52512;47.650;8.578;2022-08-23T08:28:40;20.50;99.90
65770;DHT22;52512;47.650;8.578;2022-08-23T08:31:07;20.70;99.90
65770;DHT22;52512;47.650;8.578;2022-08-23T08:33:34;20.70;99.90
65770;DHT22;52512;47.650;8.578;2022-08-23T08:36:00;20.90;99.90
65770;DHT22;52512;47.650;8.578;2022-08-23T08:38:26;21.00;99.90
65770;DHT22;52512;47.650;8.578;2022-08-23T08:41:16;21.10;99.90
65770;DHT22;52512;47.650;8.578;2022-08-23T08:44:09;21.20;99.90
65770;DHT22;52512;47.650;8.578;2022-08-23T08:46:46;21.30;99.90
65770;DHT22;52512;47.650;8.578;2022-08-23T08:49:42;21.50;99.90
65770;DHT22;52512;47.650;8.578;2022-08-23T08:52:16;21.50;99.90
65770;DHT22;52512;47.650;8.578;2022-08-23T08:54:44;21.60;99.90
65770;DHT22;52512;47.650;8.578;2022-08-23T08:57:15;21.60;99.90
65770;DHT22;52512;47.650;8.578;2022-08-23T08:59:57;21.80;99.90
65770;DHT22;52512;47.650;8.578;2022-08-23T09:02:26;21.80;99.90
65770;DHT22;52512;47.650;8.578;2022-08-23T09:04:53;22.00;99.90
65770;DHT22;52512;47.650;8.578;2022-08-23T09:07:35;22.10;99.90
65770;DHT22;52512;47.650;8.578;2022-08-23T09:18:18;22.60;99.90
65770;DHT22;52512;47.650;8.578;2022-08-23T09:20:46;22.60;99.90
65770;DHT22;52512;47.650;8.578;2022-08-23T09:23:30;22.80;99.90
65770;DHT22;52512;47.650;8.578;2022-08-23T09:26:02;22.90;99.90
65770;DHT22;52512;47.650;8.578;2022-08-23T09:28:34;23.00;99.90
65770;DHT22;52512;47.650;8.578;2022-08-23T09:31:01;23.10;99.90
65770;DHT22;52512;47.650;8.578;2022-08-23T09:33:42;23.20;99.90
65770;DHT22;52512;47.650;8.578;2022-08-23T09:36:21;23.30;99.90
65770;DHT22;52512;47.650;8.578;2022-08-23T09:39:05;23.40;99.90
65770;DHT22;52512;47.650;8.578;2022-08-23T09:41:35;23.50;99.90
65770;DHT22;52512;47.650;8.578;2022-08-23T09:44:08;23.60;99.90
65770;DHT22;52512;47.650;8.578;2022-08-23T09:46:38;23.70;99.90
65770;DHT22;52512;47.650;8.578;2022-08-23T09:49:22;23.80;99.90
65770;DHT22;52512;47.650;8.578;2022-08-23T09:51:49;23.90;99.90
65770;DHT22;52512;47.650;8.578;2022-08-23T09:54:31;24.00;99.90
65770;DHT22;52512;47.650;8.578;2022-08-23T09:57:03;24.10;99.90
65770;DHT22;52512;47.650;8.578;2022-08-23T10:02:01;24.20;99.90
65770;DHT22;52512;47.650;8.578;2022-08-23T10:04:41;24.40;99.70
65770;DHT22;52512;47.650;8.578;2022-08-23T10:09:49;24.50;99.60
65770;DHT22;52512;47.650;8.578;2022-08-23T10:12:35;24.70;99.30
65770;DHT22;52512;47.650;8.578;2022-08-23T10:15:03;24.80;99.00
65770;DHT22;52512;47.650;8.578;2022-08-23T10:18:00;24.80;97.40
65770;DHT22;52512;47.650;8.578;2022-08-23T10:20:44;24.90;97.00
65770;DHT22;52512;47.650;8.578;2022-08-23T10:26:01;25.10;96.90
65770;DHT22;52512;47.650;8.578;2022-08-23T10:28:50;25.10;96.30
65770;DHT22;52512;47.650;8.578;2022-08-23T10:34:45;25.30;95.10
65770;DHT22;52512;47.650;8.578;2022-08-23T10:42:42;25.60;94.10
65770;DHT22;52512;47.650;8.578;2022-08-23T10:45:19;25.70;93.90
65770;DHT22;52512;47.650;8.578;2022-08-23T10:48:11;25.80;93.00
65770;DHT22;52512;47.650;8.578;2022-08-23T10:51:02;25.90;92.20
65770;DHT22;52512;47.650;8.578;2022-08-23T10:53:41;26.00;92.10
65770;DHT22;52512;47.650;8.578;2022-08-23T10:56:16;26.00;91.40
65770;DHT22;52512;47.650;8.578;2022-08-23T10:59:28;26.10;91.40
65770;DHT22;52512;47.650;8.578;2022-08-23T11:05:04;26.30;90.70
65770;DHT22;52512;47.650;8.578;2022-08-23T11:10:53;26.40;90.20
65770;DHT22;52512;47.650;8.578;2022-08-23T11:13:25;26.40;88.70
65770;DHT22;52512;47.650;8.578;2022-08-23T11:16:08;26.50;87.70
65770;DHT22;52512;47.650;8.578;2022-08-23T11:18:44;26.60;88.70
65770;DHT22;52512;47.650;8.578;2022-08-23T11:31:34;26.90;87.10
65770;DHT22;52512;47.650;8.578;2022-08-23T11:45:29;27.10;80.30
65770;DHT22;52512;47.650;8.578;2022-08-23T11:48:11;27.20;80.10
65770;DHT22;52512;47.650;8.578;2022-08-23T11:59:05;27.30;76.70
65770;DHT22;52512;47.650;8.578;2022-08-23T12:01:34;27.40;77.30
65770;DHT22;52512;47.650;8.578;2022-08-23T12:04:27;27.40;76.90
65770;DHT22;52512;47.650;8.578;2022-08-23T12:06:56;27.40;76.40
65770;DHT22;52512;47.650;8.578;2022-08-23T12:23:50;27.60;73.80
65770;DHT22;52512;47.650;8.578;2022-08-23T12:37:16;28.00;72.00
65770;DHT22;52512;47.650;8.578;2022-08-23T12:39:54;28.10;71.90
65770;DHT22;52512;47.650;8.578;2022-08-23T12:42:30;28.10;70.20
65770;DHT22;52512;47.650;8.578;2022-08-23T12:45:17;28.10;69.00
65770;DHT22;52512;47.650;8.578;2022-08-23T12:47:46;28.20;70.60
65770;DHT22;52512;47.650;8.578;2022-08-23T12:50:25;28.20;70.40
65770;DHT22;52512;47.650;8.578;2022-08-23T12:52:57;28.30;68.80
65770;DHT22;52512;47.650;8.578;2022-08-23T12:55:33;28.30;66.80
65770;DHT22;52512;47.650;8.578;2022-08-23T12:58:04;28.20;67.30
65770;DHT22;52512;47.650;8.578;2022-08-23T13:00:32;28.30;66.20
65770;DHT22;52512;47.650;8.578;2022-08-23T13:03:18;28.20;65.10
65770;DHT22;52512;47.650;8.578;2022-08-23T13:05:56;28.20;64.10
65770;DHT22;52512;47.650;8.578;2022-08-23T13:09:13;28.30;64.30
65770;DHT22;52512;47.650;8.578;2022-08-23T13:11:41;28.30;65.30
65770;DHT22;52512;47.650;8.578;2022-08-23T13:16:53;28.40;63.50
65770;DHT22;52512;47.650;8.578;2022-08-23T13:22:11;28.40;63.70
65770;DHT22;52512;47.650;8.578;2022-08-23T13:24:40;28.50;66.20
65770;DHT22;52512;47.650;8.578;2022-08-23T13:27:28;28.50;63.90
65770;DHT22;52512;47.650;8.578;2022-08-23T13:29:58;28.50;63.30
65770;DHT22;52512;47.650;8.578;2022-08-23T13:32:40;28.50;65.00
65770;DHT22;52512;47.650;8.578;2022-08-23T13:35:28;28.70;65.10
65770;DHT22;52512;47.650;8.578;2022-08-23T13:38:42;28.80;65.00
65770;DHT22;52512;47.650;8.578;2022-08-23T13:41:02;28.80;65.60
65770;DHT22;52512;47.650;8.578;2022-08-23T13:43:36;28.90;65.20
65770;DHT22;52512;47.650;8.578;2022-08-23T13:48:59;29.00;64.40
65770;DHT22;52512;47.650;8.578;2022-08-23T13:51:35;28.90;64.80
65770;DHT22;52512;47.650;8.578;2022-08-23T13:54:04;28.90;63.90
65770;DHT22;52512;47.650;8.578;2022-08-23T13:56:34;28.90;63.80
65770;DHT22;52512;47.650;8.578;2022-08-23T13:59:04;28.90;63.20
65770;DHT22;52512;47.650;8.578;2022-08-23T14:01:31;29.00;64.40
65770;DHT22;52512;47.650;8.578;2022-08-23T14:03:57;29.10;64.30
65770;DHT22;52512;47.650;8.578;2022-08-23T14:06:25;29.00;62.90
65770;DHT22;52512;47.650;8.578;2022-08-23T14:08:54;29.10;63.50
65770;DHT22;52512;47.650;8.578;2022-08-23T14:11:20;29.10;63.70
65770;DHT22;52512;47.650;8.578;2022-08-23T14:13:46;29.10;63.40
65770;DHT22;52512;47.650;8.578;2022-08-23T14:16:21;29.10;63.70
65770;DHT22;52512;47.650;8.578;2022-08-23T14:18:48;29.10;63.20
65770;DHT22;52512;47.650;8.578;2022-08-23T14:21:13;29.10;63.00
65770;DHT22;52512;47.650;8.578;2022-08-23T14:23:39;29.20;62.90
65770;DHT22;52512;47.650;8.578;2022-08-23T14:26:14;29.40;63.00
65770;DHT22;52512;47.650;8.578;2022-08-23T14:28:41;29.20;62.30
65770;DHT22;52512;47.650;8.578;2022-08-23T14:31:09;29.20;63.80
65770;DHT22;52512;47.650;8.578;2022-08-23T14:33:36;29.40;63.30
65770;DHT22;52512;47.650;8.578;2022-08-23T14:36:08;29.20;62.90
65770;DHT22;52512;47.650;8.578;2022-08-23T14:38:42;29.20;63.90
65770;DHT22;52512;47.650;8.578;2022-08-23T14:41:18;29.30;62.40
65770;DHT22;52512;47.650;8.578;2022-08-23T14:43:49;29.30;63.50
65770;DHT22;52512;47.650;8.578;2022-08-23T14:46:17;29.40;63.70
65770;DHT22;52512;47.650;8.578;2022-08-23T14:48:43;29.50;63.70
65770;DHT22;52512;47.650;8.578;2022-08-23T14:53:51;29.60;63.90
65770;DHT22;52512;47.650;8.578;2022-08-23T14:56:17;29.50;61.80
65770;DHT22;52512;47.650;8.578;2022-08-23T14:58:43;29.50;62.20
65770;DHT22;52512;47.650;8.578;2022-08-23T15:01:11;29.50;62.60
65770;DHT22;52512;47.650;8.578;2022-08-23T15:03:37;29.50;61.50
65770;DHT22;52512;47.650;8.578;2022-08-23T15:06:07;29.50;62.90
65770;DHT22;52512;47.650;8.578;2022-08-23T15:08:33;29.50;61.30
65770;DHT22;52512;47.650;8.578;2022-08-23T15:10:58;29.50;61.40
65770;DHT22;52512;47.650;8.578;2022-08-23T15:13:25;29.50;62.00
65770;DHT22;52512;47.650;8.578;2022-08-23T15:15:52;29.50;61.20
65770;DHT22;52512;47.650;8.578;2022-08-23T15:18:18;29.60;61.70
65770;DHT22;52512;47.650;8.578;2022-08-23T15:20:45;29.60;61.50
65770;DHT22;52512;47.650;8.578;2022-08-23T15:52:14;30.10;61.20
65770;DHT22;52512;47.650;8.578;2022-08-23T16:11:26;30.10;60.30
65770;DHT22;52512;47.650;8.578;2022-08-23T16:17:04;30.00;60.40
65770;DHT22;52512;47.650;8.578;2022-08-23T16:19:32;30.00;60.10
65770;DHT22;52512;47.650;8.578;2022-08-23T16:22:00;30.00;60.00
65770;DHT22;52512;47.650;8.578;2022-08-23T16:31:34;29.90;58.70
65770;DHT22;52512;47.650;8.578;2022-08-23T16:37:31;29.80;58.70
65770;DHT22;52512;47.650;8.578;2022-08-23T16:40:13;29.80;58.20
65770;DHT22;52512;47.650;8.578;2022-08-23T16:42:39;29.70;57.80
65770;DHT22;52512;47.650;8.578;2022-08-23T16:45:06;29.80;57.10
65770;DHT22;52512;47.650;8.578;2022-08-23T16:47:36;29.80;57.50
65770;DHT22;52512;47.650;8.578;2022-08-23T16:50:04;29.80;57.40
65770;DHT22;52512;47.650;8.578;2022-08-23T16:52:30;29.80;57.80
65770;DHT22;52512;47.650;8.578;2022-08-23T16:54:55;29.80;58.70
65770;DHT22;52512;47.650;8.578;2022-08-23T16:57:21;29.80;59.70
65770;DHT22;52512;47.650;8.578;2022-08-23T16:59:47;29.80;59.30
65770;DHT22;52512;47.650;8.578;2022-08-23T17:02:28;29.60;57.10
65770;DHT22;52512;47.650;8.578;2022-08-23T17:04:55;29.50;57.30
65770;DHT22;52512;47.650;8.578;2022-08-23T17:07:21;29.40;57.90
65770;DHT22;52512;47.650;8.578;2022-08-23T17:09:47;29.30;56.10
65770;DHT22;52512;47.650;8.578;2022-08-23T17:12:14;29.20;57.50
65770;DHT22;52512;47.650;8.578;2022-08-23T17:14:40;29.20;57.70
65770;DHT22;52512;47.650;8.578;2022-08-23T17:17:06;29.10;57.40
65770;DHT22;52512;47.650;8.578;2022-08-23T17:19:32;29.00;57.90
65770;DHT22;52512;47.650;8.578;2022-08-23T17:21:58;29.00;59.60
65770;DHT22;52512;47.650;8.578;2022-08-23T17:24:24;29.00;59.00
65770;DHT22;52512;47.650;8.578;2022-08-23T17:26:50;28.80;58.50
65770;DHT22;52512;47.650;8.578;2022-08-23T17:29:17;28.70;59.00
65770;DHT22;52512;47.650;8.578;2022-08-23T17:31:43;28.60;59.40
65770;DHT22;52512;47.650;8.578;2022-08-23T17:34:08;28.50;59.40
65770;DHT22;52512;47.650;8.578;2022-08-23T17:36:35;28.40;58.90
65770;DHT22;52512;47.650;8.578;2022-08-23T17:39:07;28.30;59.40
65770;DHT22;52512;47.650;8.578;2022-08-23T17:41:35;28.20;59.70
65770;DHT22;52512;47.650;8.578;2022-08-23T17:44:01;28.10;59.00
65770;DHT22;52512;47.650;8.578;2022-08-23T17:46:31;28.10;60.00
65770;DHT22;52512;47.650;8.578;2022-08-23T17:48:58;28.00;61.20
65770;DHT22;52512;47.650;8.578;2022-08-23T17:51:23;27.90;61.40
65770;DHT22;52512;47.650;8.578;2022-08-23T17:53:49;27.90;62.10
65770;DHT22;52512;47.650;8.578;2022-08-23T17:56:15;27.90;62.40
65770;DHT22;52512;47.650;8.578;2022-08-23T17:58:41;27.80;65.30
65770;DHT22;52512;47.650;8.578;2022-08-23T18:01:07;27.80;64.90
65770;DHT22;52512;47.650;8.578;2022-08-23T18:03:33;27.70;64.20
65770;DHT22;52512;47.650;8.578;2022-08-23T18:05:59;27.60;64.90
65770;DHT22;52512;47.650;8.578;2022-08-23T18:08:26;27.60;65.40
65770;DHT22;52512;47.650;8.578;2022-08-23T18:10:52;27.50;66.10
65770;DHT22;52512;47.650;8.578;2022-08-23T18:13:18;27.40;66.80
65770;DHT22;52512;47.650;8.578;2022-08-23T18:15:44;27.30;66.50
65770;DHT22;52512;47.650;8.578;2022-08-23T18:18:09;27.30;66.90
65770;DHT22;52512;47.650;8.578;2022-08-23T18:20:35;27.20;67.90
65770;DHT22;52512;47.650;8.578;2022-08-23T18:23:01;27.10;67.00
65770;DHT22;52512;47.650;8.578;2022-08-23T18:25:28;27.00;67.90
65770;DHT22;52512;47.650;8.578;2022-08-23T18:27:54;26.90;68.30
65770;DHT22;52512;47.650;8.578;2022-08-23T18:30:51;26.80;68.60